MBPVMTPP

Guest
Details From MBPV - Providenciales
To MTPP - Toussaint Louverture Intl
Flight Number -
Tags Decoded
Created
Modified
Stats Distance 268 nm / 497 km
Max Altitude 0 ft / 0 m
Waypoints 7
Social Downloads 0
Likes 0
Share VATSIM

Download

Looking for another format? Having issues loading an existing format? Contact us
Advertisement - Login to hide

Notes

Decoded

Route

MBPV MICAS PVN ALBBE MEDON VETMO MTPP

ID Type Via Altitude Latitude Longitude Leg Dist Tot Dist Heading (true) Name
O MBPV APT - 0 ft / 0 m 21.77415˚ -72.27707˚ - 0 nm - -
MICAS FIX - 0 ft / 0 m 22.13150˚ -72.44524˚ 23 nm 23 nm 336° / 336° -
PVN VOR - 0 ft / 0 m 21.77222˚ -72.26603˚ 23 nm 47 nm 155° / 155° PROVIDENCIALES VOR-DME
ALBBE FIX - 0 ft / 0 m 20.41667˚ -72.24881˚ 81 nm 128 nm 179° / 179° -
MEDON FIX - 0 ft / 0 m 19.77167˚ -73.01011˚ 57 nm 186 nm 228° / 228° -
VETMO FIX - 0 ft / 0 m 19.07667˚ -72.62500˚ 47 nm 233 nm 152° / 152° -
O MTPP APT - 0 ft / 0 m 18.57933˚ -72.30692˚ 34 nm 268 nm 149° / 149° -

Altitude Profile

Advertisement - Login to hide

Weather


0- 5 10 15 20 25 30 35+ Temperature / ° C

Clouds and Precipitation
Forecast for 2017-12-11 06:00 UTC. Updated an hour ago

Ground ~20,000 ft ~40,000 ft Winds

MBPV

Details ICAO MBPV (PLS)
Name Providenciales
Region Turks and Caicos Islands
Timezone America/Grand_Turk (UTC-4.0)
Stats Elevation 15 ft / 5 m (AMSL)
Location 21.773600° -72.265900°
Runways 1
Magnetic Variation 10.608° W

METAR

Not found

TAF

MBPV 102300Z 1100/1200 13006KT 9999 FEW015CB BKN030 PROB30 TEMPO 1118/1200 VRB10KT 8000 SHRA SCT015CB OVC080

Decode

Departure Runways

ID Width Length Bearing (true) Bearing (mag) Surface Threshold Offset Overrun Length
10 148 ft / 45 m 7,584 ft / 2,312 m 93.01° 103.62° Asphalt 600 ft / 183 m 200 ft / 61 m
28 148 ft / 45 m 7,584 ft / 2,312 m 273.02° 283.63° Asphalt 0 ft / 0 m 200 ft / 61 m

MTPP

Details ICAO MTPP (PAP)
Name TOUSSAINT LOUVERTURE INTL
Region Haiti
Timezone America/Port-au-Prince (UTC-5.0)
Stats Elevation 122 ft / 37 m (AMSL)
Location 18.580051° -72.292540°
Runways 1
Magnetic Variation 10.191° W

METAR

Not found

TAF

TAF MTPP 101700Z 1018/1118 30010KT 9000 FEW026 PROB30 TEMPO 1022/1104 4500 SHRA FEW020CB BKN030 BECMG 1106/1110 VRB02KT 8000 NSW FEW016 SCT020 FM111400 06008KT 8000 SCT022

Decode

Destination Runways

ID Width Length Bearing (true) Bearing (mag) Surface Threshold Offset Overrun Length
10 141 ft / 43 m 9,963 ft / 3,037 m 86.96° 97.15° Asphalt 0 ft / 0 m 0 ft / 0 m
28 141 ft / 43 m 9,963 ft / 3,037 m 266.97° 277.16° Asphalt 0 ft / 0 m 0 ft / 0 m

Approach Navaids

Runway Type Ident Frequency Range Bearing (true) Bearing (mag) Slope Elevation
10 Localiser IMG 111.50 MHz 18 nm / 33 km 87.00° 97.19° - 121 ft / 37 m (AMSL)
10 Glidescope IMG 111.50 MHz 10 nm / 19 km 73.67° 83.86° 3.00° 122 ft / 37 m (AMSL)
10 DME IMG 111.50 MHz 18 nm / 33 km - - - 121 ft / 37 m (AMSL)

Popular Alternatives